Time;durP1;ratioP1;P1;durP2;ratioP2;P2;SDS_P1;SDS_P2;PMS_P1;PMS_P2;Temp;Humidity;BMP_temperature;BMP_pressure;BME280_temperature;BME280_humidity;BME280_pressure;Samples;Min_cycle;Max_cycle;Signal;HPM_P1;HPM_P2
2022/03/12 00:01:08;;;;;;;72.70;69.30;;;;;;;-0.86;41.18;102254.15;103956;1280;140893;-75
2022/03/12 00:03:36;;;;;;;69.10;65.90;;;;;;;-0.88;40.98;102251.06;104129;1279;107770;-75
2022/03/12 00:06:06;;;;;;;69.70;66.50;;;;;;;-0.94;41.46;102246.40;104195;1279;96536;-76
2022/03/12 00:08:40;;;;;;;70.90;67.60;;;;;;;-1.02;41.87;102245.83;104128;1279;139599;-75
2022/03/12 00:11:13;;;;;;;73.30;69.90;;;;;;;-1.03;41.95;102239.69;104156;1279;112019;-75
2022/03/12 00:13:42;;;;;;;73.20;69.80;;;;;;;-0.99;41.51;102239.52;105676;1279;140583;-77
2022/03/12 00:16:14;;;;;;;75.30;71.70;;;;;;;-0.96;41.46;102243.33;103993;1281;109906;-76
2022/03/12 00:18:43;;;;;;;76.20;72.60;;;;;;;-0.99;41.62;102248.73;104025;1281;141049;-76
2022/03/12 00:21:13;;;;;;;74.40;70.90;;;;;;;-1.01;41.60;102248.30;104078;1279;96554;-77
2022/03/12 00:23:48;;;;;;;72.30;69.00;;;;;;;-1.02;41.69;102248.29;104279;1281;110403;-75
2022/03/12 00:26:18;;;;;;;71.80;68.50;;;;;;;-1.07;41.98;102246.26;103281;1282;413512;-75
2022/03/12 00:28:46;;;;;;;72.30;68.90;;;;;;;-1.09;41.77;102244.43;104021;1279;109352;-75
2022/03/12 00:31:14;;;;;;;74.40;70.80;;;;;;;-1.11;42.04;102244.13;103823;1281;140837;-76
2022/03/12 00:33:42;;;;;;;75.70;72.20;;;;;;;-1.12;42.18;102244.59;104058;1281;96490;-76
2022/03/12 00:36:10;;;;;;;77.40;73.80;;;;;;;-1.15;42.25;102237.64;103924;1281;111542;-76
2022/03/12 00:38:37;;;;;;;73.90;70.50;;;;;;;-1.14;42.18;102236.13;103849;1281;140811;-76
2022/03/12 00:41:07;;;;;;;75.20;71.60;;;;;;;-1.13;42.44;102230.98;103987;1279;110189;-76
2022/03/12 00:43:35;;;;;;;71.20;67.80;;;;;;;-1.24;42.61;102228.34;103985;1281;140376;-76
2022/03/12 00:46:05;;;;;;;73.50;70.10;;;;;;;-1.32;42.87;102226.14;104127;1280;96488;-76
2022/03/12 00:48:34;;;;;;;72.80;69.40;;;;;;;-1.42;42.84;102222.48;104057;1281;141571;-76
2022/03/12 00:51:09;;;;;;;63.50;60.70;;;;;;;-1.51;43.39;102224.29;104370;1281;98432;-76
2022/03/12 00:53:40;;;;;;;62.60;59.80;;;;;;;-1.52;43.45;102226.17;103853;1280;107773;-78
2022/03/12 00:56:08;;;;;;;61.60;58.90;;;;;;;-1.45;43.21;102226.56;104406;1281;140431;-76
2022/03/12 00:58:37;;;;;;;64.00;61.20;;;;;;;-1.43;43.31;102226.99;104123;1281;96728;-75
2022/03/12 01:01:06;;;;;;;66.50;63.60;;;;;;;-1.45;43.51;102220.11;103876;1281;141381;-75
2022/03/12 01:03:34;;;;;;;64.70;61.90;;;;;;;-1.54;43.46;102222.77;104065;1281;99708;-75
2022/03/12 01:06:04;;;;;;;64.20;61.30;;;;;;;-1.60;43.67;102223.33;104072;1281;108202;-75
2022/03/12 01:08:34;;;;;;;64.70;61.80;;;;;;;-1.65;43.87;102223.55;103865;1281;140414;-75
2022/03/12 01:11:05;;;;;;;63.10;60.30;;;;;;;-1.65;43.98;102220.79;104020;1281;96558;-77
2022/03/12 01:13:34;;;;;;;62.40;59.60;;;;;;;-1.72;44.25;102222.33;103942;1280;141253;-76
2022/03/12 01:16:02;;;;;;;67.20;64.20;;;;;;;-1.78;44.44;102219.39;104064;1281;99896;-76
2022/03/12 01:18:30;;;;;;;66.20;63.20;;;;;;;-1.77;44.41;102219.11;103829;1280;140548;-77
2022/03/12 01:21:17;;;;;;;70.10;67.00;;;;;;;-1.71;44.17;102217.37;104381;1280;96674;-76
2022/03/12 01:23:48;;;;;;;67.80;64.70;;;;;;;-1.70;43.95;102222.45;104728;1281;97196;-76
2022/03/12 01:26:22;;;;;;;68.50;65.50;;;;;;;-1.81;44.74;102215.58;104460;1281;139912;-76
2022/03/12 01:28:49;;;;;;;66.50;63.50;;;;;;;-1.84;44.83;102215.61;104525;1281;100217;-76
2022/03/12 01:31:18;;;;;;;66.30;63.40;;;;;;;-1.82;44.63;102213.45;104338;1281;140531;-76
2022/03/12 01:33:46;;;;;;;65.00;62.10;;;;;;;-1.81;44.71;102211.05;104268;1281;96586;-76
2022/03/12 01:36:15;;;;;;;62.50;59.70;;;;;;;-1.84;44.68;102210.39;103920;1281;96847;-76
2022/03/12 01:38:51;;;;;;;66.10;63.10;;;;;;;-1.86;44.84;102212.88;104252;1280;139999;-76
2022/03/12 01:41:22;;;;;;;68.10;65.00;;;;;;;-1.95;44.99;102210.15;104116;1281;99959;-76
2022/03/12 01:43:53;;;;;;;66.50;63.50;;;;;;;-2.01;45.27;102207.39;104008;1281;139971;-76
2022/03/12 01:46:38;;;;;;;65.20;62.30;;;;;;;-2.04;45.68;102206.36;104096;1280;96680;-77
2022/03/12 01:49:10;;;;;;;62.70;59.90;;;;;;;-2.09;45.68;102208.70;104035;1281;141726;-76
2022/03/12 01:51:39;;;;;;;64.90;62.00;;;;;;;-2.11;45.90;102207.20;104094;1281;111625;-76
2022/03/12 01:54:06;;;;;;;65.40;62.40;;;;;;;-2.02;45.49;102210.27;104236;1279;99397;-74
2022/03/12 01:56:34;;;;;;;64.90;62.10;;;;;;;-2.01;45.54;102211.21;104070;1281;139912;-75
2022/03/12 01:59:02;;;;;;;67.60;64.50;;;;;;;-2.09;45.56;102207.85;104331;1279;98337;-78
2022/03/12 02:01:31;;;;;;;65.40;62.50;;;;;;;-2.09;45.78;102205.52;104171;1281;140871;-76
2022/03/12 02:04:00;;;;;;;67.20;64.10;;;;;;;-2.07;45.74;102204.96;104273;1281;111520;-72
2022/03/12 02:06:28;;;;;;;67.30;64.20;;;;;;;-2.06;45.89;102206.95;103803;1281;140583;-74
2022/03/12 02:08:59;;;;;;;65.70;62.70;;;;;;;-2.13;46.01;102208.98;104066;1281;109793;-75
2022/03/12 02:11:28;;;;;;;65.60;62.70;;;;;;;-2.18;46.07;102209.06;104097;1281;97135;-77
2022/03/12 02:14:09;;;;;;;64.80;62.00;;;;;;;-2.25;46.25;102209.73;104190;1279;142176;-76
2022/03/12 02:16:38;;;;;;;65.10;62.30;;;;;;;-2.24;46.29;102206.31;104081;1279;110057;-77
2022/03/12 02:19:07;;;;;;;64.90;62.00;;;;;;;-2.26;46.10;102206.37;104069;1281;140166;-76
2022/03/12 02:21:41;;;;;;;65.90;62.90;;;;;;;-2.29;46.33;102202.39;104108;1279;109454;-76
2022/03/12 02:24:11;;;;;;;66.50;63.40;;;;;;;-2.35;46.67;102202.73;103908;1281;96476;-76
2022/03/12 02:26:42;;;;;;;65.90;62.90;;;;;;;-2.41;47.09;102200.54;104070;1279;141302;-76
2022/03/12 02:29:12;;;;;;;63.20;60.40;;;;;;;-2.39;46.89;102198.02;104122;1280;111200;-75
2022/03/12 02:31:43;;;;;;;63.10;60.30;;;;;;;-2.39;46.79;102191.19;104149;1279;140820;-77
2022/03/12 02:34:12;;;;;;;68.30;65.20;;;;;;;-2.41;46.87;102191.45;104295;1279;109326;-75
2022/03/12 02:36:40;;;;;;;66.10;63.10;;;;;;;-2.42;46.90;102187.05;104007;1280;140417;-76
2022/03/12 02:39:08;;;;;;;67.30;64.20;;;;;;;-2.44;46.58;102187.09;104090;1279;96479;-76
2022/03/12 02:41:36;;;;;;;65.10;62.20;;;;;;;-2.45;46.96;102187.40;104134;1279;111635;-76
2022/03/12 02:44:04;;;;;;;70.10;67.00;;;;;;;-2.50;46.91;102183.48;104113;1279;140829;-76
2022/03/12 02:46:35;;;;;;;64.80;61.80;;;;;;;-2.49;47.12;102178.66;103939;1281;109213;-76
2022/03/12 02:49:02;;;;;;;69.00;65.90;;;;;;;-2.56;47.06;102183.86;103836;1279;140804;-77
2022/03/12 02:51:34;;;;;;;68.90;65.80;;;;;;;-2.58;47.08;102178.69;103803;1282;96903;-77
2022/03/12 02:54:02;;;;;;;67.60;64.50;;;;;;;-2.54;47.44;102185.53;104215;1281;111970;-75
2022/03/12 02:56:29;;;;;;;67.90;64.80;;;;;;;-2.56;47.29;102186.65;103889;1281;140907;-76
2022/03/12 02:59:00;;;;;;;66.70;63.70;;;;;;;-2.55;47.34;102188.27;103963;1279;109347;-75
2022/03/12 03:01:28;;;;;;;70.40;67.30;;;;;;;-2.55;47.24;102186.30;103873;1281;139855;-76
2022/03/12 03:03:56;;;;;;;69.50;66.40;;;;;;;-2.61;47.46;102184.45;104006;1281;96937;-75
2022/03/12 03:06:24;;;;;;;67.00;64.10;;;;;;;-2.67;47.84;102184.10;104013;1279;111384;-75
2022/03/12 03:08:52;;;;;;;68.50;65.40;;;;;;;-2.70;47.88;102180.78;103853;1281;140528;-77
2022/03/12 03:11:19;;;;;;;69.00;65.90;;;;;;;-2.72;47.91;102178.08;104026;1281;109272;-77
2022/03/12 03:13:48;;;;;;;66.30;63.40;;;;;;;-2.77;47.94;102178.66;103880;1281;141080;-76
2022/03/12 03:16:24;;;;;;;69.70;66.50;;;;;;;-2.80;48.24;102179.37;103989;1280;99456;-76
2022/03/12 03:18:53;;;;;;;70.90;67.60;;;;;;;-2.76;48.15;102181.52;103955;1281;140304;-77
2022/03/12 03:21:25;;;;;;;63.70;60.80;;;;;;;-2.77;47.81;102174.35;104078;1280;100709;-76
2022/03/12 03:23:54;;;;;;;64.00;61.10;;;;;;;-2.84;48.23;102173.40;104110;1281;109214;-76
2022/03/12 03:26:34;;;;;;;70.70;67.50;;;;;;;-2.94;48.37;102167.48;103855;1281;140122;-76
2022/03/12 03:29:02;;;;;;;67.80;64.80;;;;;;;-3.06;49.07;102175.44;103984;1281;96497;-77
2022/03/12 03:31:30;;;;;;;67.00;64.00;;;;;;;-3.09;49.10;102175.25;103842;1280;139832;-76
2022/03/12 03:33:58;;;;;;;3.20;3.10;;;;;;;-3.12;49.32;102174.97;103995;1281;99888;-76
2022/03/12 03:36:26;;;;;;;3.20;3.10;;;;;;;-3.13;49.52;102171.38;103977;1281;107955;-75
2022/03/12 03:38:53;;;;;;;2.90;2.80;;;;;;;-3.11;49.26;102167.02;103893;1281;138543;-76
2022/03/12 03:41:21;;;;;;;3.30;3.20;;;;;;;-3.10;49.52;102163.42;103773;1282;96749;-76
2022/03/12 03:43:51;;;;;;;3.00;2.90;;;;;;;-3.04;49.45;102162.02;103951;1279;139926;-77
2022/03/12 03:46:21;;;;;;;3.20;3.10;;;;;;;-3.11;49.56;102159.56;104132;1279;99864;-76
2022/03/12 03:48:51;;;;;;;3.20;3.10;;;;;;;-3.17;49.79;102157.11;104044;1279;141666;-75
2022/03/12 03:51:20;;;;;;;3.10;3.00;;;;;;;-3.18;49.78;102155.47;104126;1279;96690;-76
2022/03/12 03:53:49;;;;;;;3.20;3.10;;;;;;;-3.12;49.50;102154.45;104202;1279;96612;-75
2022/03/12 03:56:18;;;;;;;2.90;2.80;;;;;;;-3.08;49.47;102154.28;104052;1279;140534;-77
2022/03/12 03:58:45;;;;;;;3.20;3.10;;;;;;;-3.05;49.07;102150.47;103942;1281;99870;-77
2022/03/12 04:01:18;;;;;;;3.10;3.00;;;;;;;-2.99;48.76;102151.36;103999;1279;140232;-76
2022/03/12 04:03:49;;;;;;;3.30;3.20;;;;;;;-2.95;48.43;102149.50;104075;1279;96610;-76
2022/03/12 04:06:19;;;;;;;3.00;2.90;;;;;;;-2.95;48.94;102149.98;104174;1279;96651;-76
2022/03/12 04:08:48;;;;;;;3.20;3.10;;;;;;;-2.95;49.01;102151.77;104707;1279;139867;-77
2022/03/12 04:11:19;;;;;;;2.90;2.80;;;;;;;-2.89;48.88;102155.91;104165;1279;99967;-77
2022/03/12 04:13:49;;;;;;;3.10;3.00;;;;;;;-2.97;49.22;102164.88;104115;1279;138402;-76
2022/03/12 04:16:18;;;;;;;3.20;3.10;;;;;;;-3.04;49.29;102163.75;104298;1279;96619;-76
2022/03/12 04:18:48;;;;;;;3.10;3.00;;;;;;;-3.09;49.48;102160.52;104029;1279;140489;-77
2022/03/12 04:21:17;;;;;;;3.30;3.20;;;;;;;-3.07;49.32;102159.77;104121;1279;111399;-76
2022/03/12 04:23:46;;;;;;;3.10;3.00;;;;;;;-3.04;49.64;102167.74;104205;1279;100372;-76
2022/03/12 04:26:14;;;;;;;3.20;3.10;;;;;;;-3.15;49.73;102163.13;103987;1279;140339;-76
2022/03/12 04:28:42;;;;;;;3.60;3.50;;;;;;;-3.20;49.71;102161.13;103901;1282;97033;-77
2022/03/12 04:31:11;;;;;;;3.00;2.90;;;;;;;-3.19;50.18;102159.94;104021;1279;139732;-76
2022/03/12 04:33:39;;;;;;;3.00;2.90;;;;;;;-3.22;50.13;102160.09;103948;1280;111480;-76
2022/03/12 04:36:10;;;;;;;3.00;2.90;;;;;;;-3.18;49.72;102158.98;104125;1279;100000;-76
2022/03/12 04:38:39;;;;;;;3.30;3.20;;;;;;;-3.16;49.59;102160.27;103802;1280;141058;-76
2022/03/12 04:41:08;;;;;;;3.30;3.20;;;;;;;-3.18;49.72;102167.96;104092;1279;97799;-76
2022/03/12 04:43:35;;;;;;;3.10;3.00;;;;;;;-3.22;50.07;102163.06;104066;1279;139966;-77
2022/03/12 04:46:03;;;;;;;3.30;3.20;;;;;;;-3.24;50.02;102162.94;103932;1281;111615;-76
2022/03/12 04:48:32;;;;;;;3.20;3.10;;;;;;;-3.20;49.86;102163.73;103927;1280;140869;-77
2022/03/12 04:51:00;;;;;;;3.10;3.00;;;;;;;-3.16;49.48;102159.38;104138;1279;107935;-77
2022/03/12 04:53:28;;;;;;;3.40;3.30;;;;;;;-3.18;49.75;102158.57;104149;1279;97097;-77
2022/03/12 04:55:56;;;;;;;3.20;3.10;;;;;;;-3.25;49.88;102156.98;103917;1281;140197;-76
2022/03/12 04:58:23;;;;;;;3.10;3.00;;;;;;;-3.26;50.08;102161.10;104174;1279;111213;-75
2022/03/12 05:00:51;;;;;;;3.30;3.20;;;;;;;-3.29;50.28;102158.52;104096;1279;140594;-76
2022/03/12 05:03:22;;;;;;;3.20;3.10;;;;;;;-3.42;50.18;102155.84;104172;1279;108163;-76
2022/03/12 05:05:52;;;;;;;3.50;3.40;;;;;;;-3.45;50.48;102152.17;104352;1279;96545;-76
2022/03/12 05:08:25;;;;;;;3.00;2.90;;;;;;;-3.39;50.91;102149.59;104115;1279;140388;-76
2022/03/12 05:10:54;;;;;;;3.10;3.00;;;;;;;-3.30;50.77;102150.95;104651;1279;111629;-76
2022/03/12 05:13:27;;;;;;;2.80;2.70;;;;;;;-3.29;50.64;102146.88;104121;1279;139571;-77
2022/03/12 05:15:59;;;;;;;3.10;3.00;;;;;;;-3.29;50.72;102144.82;104330;1279;109213;-78
2022/03/12 05:18:27;;;;;;;3.00;2.90;;;;;;;-3.28;50.83;102143.12;104326;1279;96504;-77
2022/03/12 05:20:56;;;;;;;3.10;3.00;;;;;;;-3.33;51.05;102138.30;104129;1279;140762;-76
2022/03/12 05:23:26;;;;;;;3.00;2.90;;;;;;;-3.35;51.36;102137.13;104145;1281;111673;-76
2022/03/12 05:25:54;;;;;;;3.30;3.20;;;;;;;-3.34;51.37;102132.50;104066;1279;140203;-76
2022/03/12 05:28:27;;;;;;;3.20;3.10;;;;;;;-3.25;50.91;102133.73;104188;1279;109619;-75
2022/03/12 05:31:04;;;;;;;3.20;3.10;;;;;;;-3.24;51.26;102140.35;104094;1279;140802;-76
2022/03/12 05:33:32;;;;;;;3.30;3.20;;;;;;;-3.38;51.26;102140.63;104120;1279;96468;-76
2022/03/12 05:36:01;;;;;;;3.20;3.10;;;;;;;-3.45;51.24;102140.56;104151;1279;110857;-76
2022/03/12 05:38:31;;;;;;;3.10;3.00;;;;;;;-3.50;51.45;102139.34;104045;1280;139393;-76
2022/03/12 05:40:59;;;;;;;3.20;3.10;;;;;;;-3.55;51.82;102144.66;104196;1279;109887;-76
2022/03/12 05:43:27;;;;;;;3.50;3.40;;;;;;;-3.59;51.61;102147.35;104137;1279;140131;-76
2022/03/12 05:45:56;;;;;;;3.20;3.10;;;;;;;-3.63;51.50;102149.73;104250;1279;96999;-75
2022/03/12 05:48:24;;;;;;;3.10;3.00;;;;;;;-3.62;51.54;102143.86;104176;1279;111628;-76
2022/03/12 05:50:53;;;;;;;3.30;3.20;;;;;;;-3.58;51.53;102145.02;104091;1279;139611;-76
2022/03/12 05:53:21;;;;;;;3.60;3.50;;;;;;;-3.37;51.39;102149.67;104201;1280;109828;-75
2022/03/12 05:55:49;;;;;;;3.60;3.50;;;;;;;-3.18;50.62;102152.67;104083;1279;140089;-77
2022/03/12 05:58:19;;;;;;;3.10;3.00;;;;;;;-3.06;50.64;102147.30;104086;1281;96492;-77
2022/03/12 06:00:54;;;;;;;3.20;3.10;;;;;;;-2.95;50.94;102152.06;104215;1279;139709;-76
2022/03/12 06:03:24;;;;;;;3.00;2.90;;;;;;;-2.93;51.03;102154.13;104256;1279;99896;-76
2022/03/12 06:05:58;;;;;;;3.00;2.90;;;;;;;-2.88;51.10;102158.95;104156;1279;109589;-76
2022/03/12 06:08:28;;;;;;;2.80;2.70;;;;;;;-2.76;51.23;102157.89;104098;1279;139142;-76
2022/03/12 06:10:56;;;;;;;2.80;2.70;;;;;;;-2.62;50.94;102156.35;104316;1279;97495;-78
2022/03/12 06:13:29;;;;;;;2.90;2.80;;;;;;;-2.46;50.84;102153.93;104103;1279;140741;-77
2022/03/12 06:15:58;;;;;;;2.90;2.80;;;;;;;-2.33;50.59;102152.73;104252;1279;97481;-76
2022/03/12 06:18:29;;;;;;;2.70;2.60;;;;;;;-2.28;50.56;102152.48;104302;1279;109563;-76
2022/03/12 06:20:58;;;;;;;2.70;2.60;;;;;;;-2.38;49.74;102152.32;104261;1279;139545;-76
2022/03/12 06:23:27;;;;;;;2.90;2.80;;;;;;;-2.45;49.19;102146.34;104237;1279;96589;-76
2022/03/12 06:25:55;;;;;;;2.70;2.60;;;;;;;-2.51;49.06;102144.48;104037;1279;140038;-76
2022/03/12 06:28:23;;;;;;;2.80;2.70;;;;;;;-2.52;48.93;102145.44;104165;1279;99504;-76
2022/03/12 06:30:53;;;;;;;2.70;2.60;;;;;;;-2.54;48.88;102140.48;104071;1279;141236;-76
2022/03/12 06:33:22;;;;;;;2.80;2.70;;;;;;;-2.54;48.81;102134.39;104311;1279;96926;-76
2022/03/12 06:35:51;;;;;;;2.90;2.80;;;;;;;-2.57;48.81;102136.50;104231;1279;96617;-76
2022/03/12 06:38:20;;;;;;;2.90;2.80;;;;;;;-2.52;48.84;102139.77;104145;1279;140268;-77
2022/03/12 06:40:49;;;;;;;2.70;2.60;;;;;;;-2.45;48.99;102142.33;104257;1279;99845;-77
2022/03/12 06:43:19;;;;;;;2.80;2.70;;;;;;;-2.45;49.36;102142.72;104233;1279;140161;-76
2022/03/12 06:45:49;;;;;;;2.80;2.70;;;;;;;-2.42;49.38;102142.17;104253;1279;96692;-76
2022/03/12 06:48:17;;;;;;;2.70;2.60;;;;;;;-2.37;49.24;102139.52;104337;1279;96520;-77
2022/03/12 06:50:45;;;;;;;2.90;2.80;;;;;;;-2.27;49.24;102143.19;103981;1281;138356;-75
2022/03/12 06:53:14;;;;;;;2.70;2.60;;;;;;;-2.13;49.17;102143.02;104168;1281;99783;-75
2022/03/12 06:55:42;;;;;;;2.60;2.50;;;;;;;-2.01;48.81;102147.86;104134;1279;140233;-77
2022/03/12 06:58:11;;;;;;;2.50;2.40;;;;;;;-1.93;48.55;102151.74;104165;1279;96628;-77
2022/03/12 07:00:40;;;;;;;2.70;2.60;;;;;;;-1.83;48.68;102154.88;104011;1280;140356;-76
2022/03/12 07:03:07;;;;;;;2.70;2.60;;;;;;;-1.76;48.42;102158.21;104179;1279;111436;-76
2022/03/12 07:05:36;;;;;;;2.40;2.30;;;;;;;-1.72;48.33;102165.39;104199;1279;100364;-76
2022/03/12 07:08:04;;;;;;;2.40;2.30;;;;;;;-1.60;48.21;102168.11;104046;1279;138931;-76
2022/03/12 07:10:32;;;;;;;2.70;2.60;;;;;;;-1.48;48.30;102164.36;104112;1279;96602;-76
2022/03/12 07:13:00;;;;;;;2.40;2.30;;;;;;;-1.37;47.79;102170.16;104079;1279;140066;-76
2022/03/12 07:15:29;;;;;;;2.60;2.50;;;;;;;-1.30;47.38;102170.67;104158;1279;111041;-73
2022/03/12 07:17:57;;;;;;;2.50;2.40;;;;;;;-1.25;47.14;102160.84;104465;1279;99924;-75
2022/03/12 07:20:26;;;;;;;2.30;2.20;;;;;;;-1.14;47.38;102159.63;104057;1280;139724;-76
2022/03/12 07:22:54;;;;;;;2.90;2.80;;;;;;;-1.05;47.15;102158.70;104235;1279;96801;-78
2022/03/12 07:25:25;;;;;;;2.30;2.20;;;;;;;-0.94;46.98;102161.33;104028;1281;140960;-75
2022/03/12 07:27:56;;;;;;;2.30;2.20;;;;;;;-0.84;46.50;102155.69;104153;1279;112182;-75
2022/03/12 07:30:24;;;;;;;2.40;2.30;;;;;;;-0.78;46.33;102157.02;104160;1279;98448;-76
2022/03/12 07:32:51;;;;;;;1.90;1.90;;;;;;;-0.66;46.08;102156.19;104137;1279;139628;-74
2022/03/12 07:35:19;;;;;;;2.50;2.40;;;;;;;-0.53;46.02;102159.98;104244;1279;98403;-75
2022/03/12 07:37:49;;;;;;;2.30;2.20;;;;;;;-0.38;46.15;102155.27;104092;1279;138845;-77
2022/03/12 07:40:18;;;;;;;2.20;2.10;;;;;;;-0.21;46.12;102159.89;104206;1279;111705;-75
2022/03/12 07:42:46;;;;;;;1.90;1.90;;;;;;;-0.07;45.88;102159.83;104066;1279;140254;-75
2022/03/12 07:45:16;;;;;;;2.00;2.00;;;;;;;0.11;45.54;102163.95;104104;1279;110601;-75
2022/03/12 07:47:43;;;;;;;2.00;2.00;;;;;;;0.20;45.15;102169.73;104169;1279;96931;-75
2022/03/12 07:50:12;;;;;;;2.00;2.00;;;;;;;0.26;44.63;102168.79;104161;1279;140254;-75
2022/03/12 07:52:41;;;;;;;2.00;2.00;;;;;;;0.41;44.54;102170.14;104163;1279;110011;-75
2022/03/12 07:55:11;;;;;;;1.90;1.90;;;;;;;0.57;44.21;102171.55;104010;1279;140081;-74
2022/03/12 07:57:40;;;;;;;1.90;1.90;;;;;;;0.67;44.05;102166.74;104103;1281;108649;-73
2022/03/12 08:00:11;;;;;;;2.20;2.10;;;;;;;0.82;42.97;102163.35;104159;1279;96896;-75
2022/03/12 08:02:45;;;;;;;1.80;1.80;;;;;;;0.99;42.14;102160.92;104072;1279;140199;-75
2022/03/12 08:05:13;;;;;;;1.70;1.70;;;;;;;1.13;41.73;102155.89;104219;1279;111538;-74
2022/03/12 08:07:41;;;;;;;1.70;1.70;;;;;;;1.27;41.22;102154.86;104148;1279;139661;-73
2022/03/12 08:10:09;;;;;;;1.90;1.90;;;;;;;1.40;40.72;102151.16;104152;1279;108313;-74
2022/03/12 08:12:37;;;;;;;1.60;1.60;;;;;;;1.55;40.76;102147.91;104055;1279;141155;-74
2022/03/12 08:15:07;;;;;;;1.60;1.60;;;;;;;1.70;39.16;102150.77;104377;1279;96537;-74
2022/03/12 08:17:36;;;;;;;1.50;1.50;;;;;;;1.82;39.10;102152.81;104329;1279;111164;-76
2022/03/12 08:20:07;;;;;;;1.50;1.50;;;;;;;2.03;39.95;102148.13;104098;1280;139873;-74
2022/03/12 08:22:38;;;;;;;1.50;1.50;;;;;;;2.20;37.97;102141.92;104309;1279;109461;-74
2022/03/12 08:25:07;;;;;;;1.50;1.50;;;;;;;2.31;37.70;102134.09;104124;1279;141221;-73
2022/03/12 08:27:37;;;;;;;1.60;1.60;;;;;;;2.41;37.12;102137.23;104149;1279;97002;-75
2022/03/12 08:30:07;;;;;;;1.40;1.40;;;;;;;2.47;37.02;102136.41;104160;1279;111601;-74
2022/03/12 08:32:36;;;;;;;1.40;1.40;;;;;;;2.57;37.24;102136.38;104096;1279;139995;-75
2022/03/12 08:35:05;;;;;;;1.40;1.40;;;;;;;2.72;37.37;102134.98;104183;1279;109210;-74
2022/03/12 08:37:33;;;;;;;1.60;1.60;;;;;;;2.91;36.61;102134.55;104055;1279;140776;-74
2022/03/12 08:40:06;;;;;;;1.30;1.30;;;;;;;3.09;36.42;102137.77;104374;1279;96594;-74
2022/03/12 08:42:35;;;;;;;1.30;1.30;;;;;;;3.21;36.09;102137.30;103925;1279;111548;-74
2022/03/12 08:45:04;;;;;;;1.20;1.20;;;;;;;3.35;35.65;102143.51;104157;1279;140239;-73
2022/03/12 08:47:32;;;;;;;1.20;1.20;;;;;;;3.47;35.66;102143.90;104119;1279;109025;-74
2022/03/12 08:50:00;;;;;;;1.20;1.20;;;;;;;3.62;34.35;102144.36;103976;1279;140823;-74
2022/03/12 08:52:28;;;;;;;1.20;1.20;;;;;;;3.66;34.63;102138.84;104148;1279;96985;-75
2022/03/12 08:54:56;;;;;;;1.20;1.20;;;;;;;3.77;33.29;102140.73;104033;1279;139521;-73
2022/03/12 08:57:24;;;;;;;1.10;1.10;;;;;;;3.80;33.56;102138.92;103803;1281;99258;-73
2022/03/12 08:59:52;;;;;;;1.10;1.10;;;;;;;3.90;32.75;102137.61;104132;1280;109479;-74
2022/03/12 09:02:21;;;;;;;1.40;1.40;;;;;;;4.02;33.31;102137.61;104038;1279;140967;-74
2022/03/12 09:04:49;;;;;;;1.20;1.20;;;;;;;4.08;32.68;102132.33;104170;1279;96881;-74
2022/03/12 09:07:20;;;;;;;1.70;1.70;;;;;;;4.20;32.64;102125.64;104121;1279;139745;-74
2022/03/12 09:09:48;;;;;;;1.60;1.60;;;;;;;4.87;31.18;102124.20;104206;1279;99813;-74
2022/03/12 09:12:16;;;;;;;1.50;1.50;;;;;;;7.00;29.02;102118.64;104107;1279;109017;-74
2022/03/12 09:14:45;;;;;;;1.20;1.20;;;;;;;9.55;27.68;102110.48;103997;1280;139666;-74
2022/03/12 09:17:13;;;;;;;0.90;0.90;;;;;;;11.55;24.02;102099.98;104135;1279;96554;-75
2022/03/12 09:19:40;;;;;;;0.80;0.80;;;;;;;13.13;22.35;102101.17;104020;1279;142427;-73
2022/03/12 09:22:08;;;;;;;0.70;0.70;;;;;;;14.61;19.84;102095.61;103928;1281;99597;-74
2022/03/12 09:24:38;;;;;;;0.50;0.50;;;;;;;16.03;19.61;102091.17;104132;1279;109677;-74
2022/03/12 09:27:07;;;;;;;0.40;0.20;;;;;;;17.67;18.14;102087.64;104094;1279;140382;-73
2022/03/12 09:29:35;;;;;;;0.40;0.20;;;;;;;18.25;16.78;102081.97;104184;1280;96927;-74
2022/03/12 09:32:04;;;;;;;9.80;9.50;;;;;;;16.94;16.72;102088.19;104071;1279;139899;-74
2022/03/12 09:34:34;;;;;;;13.20;12.80;;;;;;;16.47;16.81;102089.32;104180;1279;98806;-74
2022/03/12 09:37:03;;;;;;;14.80;14.30;;;;;;;15.36;17.05;102090.92;104009;1279;139962;-74
2022/03/12 09:39:32;;;;;;;13.40;12.90;;;;;;;15.30;18.41;102090.13;104122;1279;97105;-74
2022/03/12 09:42:00;;;;;;;12.00;11.60;;;;;;;17.09;17.09;102085.63;104449;1279;97031;-75
2022/03/12 09:44:28;;;;;;;11.60;11.20;;;;;;;17.57;16.96;102083.42;104068;1279;140809;-74
2022/03/12 09:46:56;;;;;;;11.00;10.60;;;;;;;18.24;16.12;102075.34;104101;1280;99908;-74
2022/03/12 09:49:24;;;;;;;8.30;8.00;;;;;;;19.10;15.35;102069.98;103789;1281;140315;-75
2022/03/12 09:51:52;;;;;;;10.30;10.00;;;;;;;19.68;15.47;102063.21;104056;1279;97896;-75
2022/03/12 09:54:20;;;;;;;7.90;7.60;;;;;;;20.61;14.91;102060.11;104164;1279;96784;-74
2022/03/12 09:56:48;;;;;;;7.50;7.30;;;;;;;21.50;14.48;102056.43;104069;1279;139463;-75
2022/03/12 09:59:15;;;;;;;6.20;6.00;;;;;;;22.13;13.17;102045.92;104130;1279;98106;-75
2022/03/12 10:01:43;;;;;;;5.60;5.40;;;;;;;22.30;12.43;102041.30;103794;1281;139507;-75
2022/03/12 10:04:11;;;;;;;2.60;2.50;;;;;;;22.99;13.07;102039.42;103925;1281;96801;-75
2022/03/12 10:06:40;;;;;;;3.00;2.90;;;;;;;24.12;12.52;102034.08;104251;1279;97843;-75
2022/03/12 10:09:09;;;;;;;2.60;2.50;;;;;;;25.01;12.05;102032.98;104214;1279;139892;-75
2022/03/12 10:11:37;;;;;;;2.70;2.60;;;;;;;25.36;10.71;102032.19;104170;1279;100367;-75
2022/03/12 10:14:05;;;;;;;1.50;1.50;;;;;;;25.34;11.05;102028.98;104058;1279;140889;-75
2022/03/12 10:16:33;;;;;;;1.60;1.60;;;;;;;25.90;10.51;102026.69;104157;1279;96581;-74
2022/03/12 10:19:02;;;;;;;1.40;1.40;;;;;;;25.74;9.87;102025.35;104101;1280;140425;-75
2022/03/12 10:21:32;;;;;;;1.40;1.40;;;;;;;25.70;9.71;102022.73;104242;1279;111966;-73
2022/03/12 10:24:02;;;;;;;1.00;1.00;;;;;;;25.69;10.20;102019.35;104386;1279;99377;-75
2022/03/12 10:26:30;;;;;;;1.30;1.30;;;;;;;26.31;9.74;102012.23;104158;1279;139637;-75
2022/03/12 10:28:57;;;;;;;1.00;1.00;;;;;;;26.58;9.93;102008.02;104132;1279;96590;-74
2022/03/12 10:31:28;;;;;;;1.30;1.30;;;;;;;27.02;8.90;102002.66;104048;1279;140944;-74
2022/03/12 10:34:24;;;;;;;1.10;1.10;;;;;;;27.16;9.52;101998.55;104177;1279;111562;-74
2022/03/12 10:36:54;;;;;;;0.90;0.90;;;;;;;28.00;9.31;101991.52;104164;1279;139577;-75
2022/03/12 10:39:33;;;;;;;1.40;1.40;;;;;;;28.05;9.04;101987.90;103782;1282;107733;-75
2022/03/12 10:42:09;;;;;;;1.20;1.20;;;;;;;28.04;8.45;101987.98;104408;1279;98248;-76
2022/03/12 10:44:39;;;;;;;0.40;0.40;;;;;;;27.69;8.38;101988.20;104145;1281;139546;-77
2022/03/12 10:47:24;;;;;;;1.40;1.40;;;;;;;26.41;8.29;101992.15;104374;1279;112215;-76
2022/03/12 10:49:57;;;;;;;2.60;2.50;;;;;;;23.93;10.10;101996.14;104075;1279;142199;-75
2022/03/12 10:52:31;;;;;;;3.50;3.40;;;;;;;23.75;10.07;101989.69;104314;1280;109276;-73
2022/03/12 10:55:01;;;;;;;4.80;4.70;;;;;;;21.80;11.07;101993.19;104071;1279;140242;-75
2022/03/12 10:57:28;;;;;;;8.30;8.00;;;;;;;20.06;11.86;101997.89;104246;1280;96501;-75
2022/03/12 10:59:56;;;;;;;8.50;8.20;;;;;;;18.72;13.01;101998.59;104226;1279;111661;-73
2022/03/12 11:02:24;;;;;;;9.60;9.30;;;;;;;17.67;13.70;101996.73;103947;1281;139943;-74
2022/03/12 11:04:52;;;;;;;11.70;11.30;;;;;;;16.51;14.16;102002.60;104176;1279;109565;-74
2022/03/12 11:07:30;;;;;;;15.30;14.80;;;;;;;15.07;14.92;102003.63;104101;1279;140730;-74
2022/03/12 11:09:58;;;;;;;14.40;13.90;;;;;;;13.83;15.90;102003.50;104198;1279;96740;-75
2022/03/12 11:12:31;;;;;;;18.00;17.40;;;;;;;12.98;16.90;102004.34;104216;1279;112037;-74
2022/03/12 11:15:19;;;;;;;17.80;17.20;;;;;;;12.73;17.75;102002.99;104016;1279;140583;-74
2022/03/12 11:17:49;;;;;;;20.80;20.10;;;;;;;12.69;17.95;102004.45;104410;1280;109664;-74